sensor_id;sensor_type;location;lat;lon;timestamp;P1;durP1;ratioP1;P2;durP2;ratioP2
16826;SDS011;8530;49.540;8.576;2022-07-10T00:00:50;9.07;;;8.27;;
16826;SDS011;8530;49.540;8.576;2022-07-10T00:03:17;12.10;;;10.17;;
16826;SDS011;8530;49.540;8.576;2022-07-10T00:05:44;12.30;;;9.83;;
16826;SDS011;8530;49.540;8.576;2022-07-10T00:08:10;10.27;;;9.27;;
16826;SDS011;8530;49.540;8.576;2022-07-10T00:10:37;11.90;;;9.17;;
16826;SDS011;8530;49.540;8.576;2022-07-10T00:13:04;11.30;;;9.90;;
16826;SDS011;8530;49.540;8.576;2022-07-10T00:15:31;11.43;;;9.07;;
16826;SDS011;8530;49.540;8.576;2022-07-10T00:17:59;10.20;;;9.30;;
16826;SDS011;8530;49.540;8.576;2022-07-10T00:20:26;10.07;;;8.37;;
16826;SDS011;8530;49.540;8.576;2022-07-10T00:22:53;11.60;;;8.70;;
16826;SDS011;8530;49.540;8.576;2022-07-10T00:25:19;8.80;;;8.00;;
16826;SDS011;8530;49.540;8.576;2022-07-10T00:27:46;7.53;;;6.93;;
16826;SDS011;8530;49.540;8.576;2022-07-10T00:30:13;8.27;;;7.47;;
16826;SDS011;8530;49.540;8.576;2022-07-10T00:32:40;11.33;;;8.70;;
16826;SDS011;8530;49.540;8.576;2022-07-10T00:35:08;8.33;;;7.40;;
16826;SDS011;8530;49.540;8.576;2022-07-10T00:37:35;7.50;;;6.90;;
16826;SDS011;8530;49.540;8.576;2022-07-10T00:40:02;7.87;;;7.17;;
16826;SDS011;8530;49.540;8.576;2022-07-10T00:42:30;10.57;;;8.03;;
16826;SDS011;8530;49.540;8.576;2022-07-10T00:44:57;9.97;;;8.97;;
16826;SDS011;8530;49.540;8.576;2022-07-10T00:47:23;7.60;;;6.90;;
16826;SDS011;8530;49.540;8.576;2022-07-10T00:49:50;7.63;;;6.83;;
16826;SDS011;8530;49.540;8.576;2022-07-10T00:52:18;8.63;;;7.83;;
16826;SDS011;8530;49.540;8.576;2022-07-10T00:54:46;8.37;;;7.13;;
16826;SDS011;8530;49.540;8.576;2022-07-10T00:57:15;7.30;;;6.57;;
16826;SDS011;8530;49.540;8.576;2022-07-10T00:59:42;8.07;;;7.40;;
16826;SDS011;8530;49.540;8.576;2022-07-10T01:02:10;7.90;;;7.10;;
16826;SDS011;8530;49.540;8.576;2022-07-10T01:04:37;9.10;;;7.30;;
16826;SDS011;8530;49.540;8.576;2022-07-10T01:07:04;16.83;;;7.30;;
16826;SDS011;8530;49.540;8.576;2022-07-10T01:09:33;7.77;;;6.80;;
16826;SDS011;8530;49.540;8.576;2022-07-10T01:12:00;8.73;;;7.83;;
16826;SDS011;8530;49.540;8.576;2022-07-10T01:14:28;9.90;;;7.90;;
16826;SDS011;8530;49.540;8.576;2022-07-10T01:16:55;15.97;;;9.90;;
16826;SDS011;8530;49.540;8.576;2022-07-10T01:19:21;13.80;;;9.00;;
16826;SDS011;8530;49.540;8.576;2022-07-10T01:21:50;13.80;;;9.03;;
16826;SDS011;8530;49.540;8.576;2022-07-10T01:24:16;11.50;;;7.30;;
16826;SDS011;8530;49.540;8.576;2022-07-10T01:26:43;8.47;;;6.80;;
16826;SDS011;8530;49.540;8.576;2022-07-10T01:29:10;7.20;;;6.40;;
16826;SDS011;8530;49.540;8.576;2022-07-10T01:31:37;7.57;;;5.80;;
16826;SDS011;8530;49.540;8.576;2022-07-10T01:34:05;6.13;;;5.30;;
16826;SDS011;8530;49.540;8.576;2022-07-10T01:36:34;7.57;;;6.53;;
16826;SDS011;8530;49.540;8.576;2022-07-10T01:39:02;6.63;;;4.70;;
16826;SDS011;8530;49.540;8.576;2022-07-10T01:41:29;6.13;;;5.50;;
16826;SDS011;8530;49.540;8.576;2022-07-10T01:43:56;5.50;;;4.83;;
16826;SDS011;8530;49.540;8.576;2022-07-10T01:46:23;5.43;;;4.77;;
16826;SDS011;8530;49.540;8.576;2022-07-10T01:48:50;4.97;;;4.17;;
16826;SDS011;8530;49.540;8.576;2022-07-10T01:51:17;4.90;;;4.50;;
16826;SDS011;8530;49.540;8.576;2022-07-10T01:53:44;8.40;;;5.03;;
16826;SDS011;8530;49.540;8.576;2022-07-10T01:56:13;5.10;;;4.07;;
16826;SDS011;8530;49.540;8.576;2022-07-10T01:58:42;5.17;;;4.30;;
16826;SDS011;8530;49.540;8.576;2022-07-10T02:01:09;4.17;;;3.70;;
16826;SDS011;8530;49.540;8.576;2022-07-10T02:03:36;4.87;;;3.60;;
16826;SDS011;8530;49.540;8.576;2022-07-10T02:06:20;8.50;;;4.80;;
16826;SDS011;8530;49.540;8.576;2022-07-10T02:08:47;7.17;;;3.70;;
16826;SDS011;8530;49.540;8.576;2022-07-10T02:11:15;10.90;;;4.60;;
16826;SDS011;8530;49.540;8.576;2022-07-10T02:13:42;4.10;;;3.70;;
16826;SDS011;8530;49.540;8.576;2022-07-10T02:16:09;4.00;;;3.63;;
16826;SDS011;8530;49.540;8.576;2022-07-10T02:18:36;5.60;;;3.10;;
16826;SDS011;8530;49.540;8.576;2022-07-10T02:21:04;9.67;;;4.10;;
16826;SDS011;8530;49.540;8.576;2022-07-10T02:23:31;6.80;;;3.70;;
16826;SDS011;8530;49.540;8.576;2022-07-10T02:25:57;5.93;;;3.43;;
16826;SDS011;8530;49.540;8.576;2022-07-10T02:28:25;6.07;;;3.70;;
16826;SDS011;8530;49.540;8.576;2022-07-10T02:30:52;6.00;;;3.03;;
16826;SDS011;8530;49.540;8.576;2022-07-10T02:33:18;5.07;;;3.17;;
16826;SDS011;8530;49.540;8.576;2022-07-10T02:35:45;7.13;;;3.40;;
16826;SDS011;8530;49.540;8.576;2022-07-10T02:38:12;9.10;;;3.10;;
16826;SDS011;8530;49.540;8.576;2022-07-10T02:40:39;5.93;;;3.30;;
16826;SDS011;8530;49.540;8.576;2022-07-10T02:43:05;4.10;;;2.87;;
16826;SDS011;8530;49.540;8.576;2022-07-10T02:45:33;14.47;;;3.23;;
16826;SDS011;8530;49.540;8.576;2022-07-10T02:48:00;6.93;;;2.73;;
16826;SDS011;8530;49.540;8.576;2022-07-10T02:50:27;6.73;;;2.80;;
16826;SDS011;8530;49.540;8.576;2022-07-10T02:52:54;3.90;;;2.50;;
16826;SDS011;8530;49.540;8.576;2022-07-10T02:55:20;6.23;;;3.40;;
16826;SDS011;8530;49.540;8.576;2022-07-10T02:57:47;3.30;;;2.93;;
16826;SDS011;8530;49.540;8.576;2022-07-10T03:00:14;11.40;;;3.43;;
16826;SDS011;8530;49.540;8.576;2022-07-10T03:02:42;12.23;;;3.87;;
16826;SDS011;8530;49.540;8.576;2022-07-10T03:05:09;4.50;;;2.77;;
16826;SDS011;8530;49.540;8.576;2022-07-10T03:07:35;3.67;;;2.87;;
16826;SDS011;8530;49.540;8.576;2022-07-10T03:10:02;3.27;;;2.50;;
16826;SDS011;8530;49.540;8.576;2022-07-10T03:12:29;3.70;;;2.90;;
16826;SDS011;8530;49.540;8.576;2022-07-10T03:14:56;4.03;;;2.70;;
16826;SDS011;8530;49.540;8.576;2022-07-10T03:17:24;4.90;;;3.30;;
16826;SDS011;8530;49.540;8.576;2022-07-10T03:19:52;6.90;;;3.43;;
16826;SDS011;8530;49.540;8.576;2022-07-10T03:22:19;4.90;;;3.10;;
16826;SDS011;8530;49.540;8.576;2022-07-10T03:24:46;5.17;;;2.90;;
16826;SDS011;8530;49.540;8.576;2022-07-10T03:27:13;5.83;;;3.50;;
16826;SDS011;8530;49.540;8.576;2022-07-10T03:29:39;5.10;;;3.10;;
16826;SDS011;8530;49.540;8.576;2022-07-10T03:32:07;4.20;;;2.93;;
16826;SDS011;8530;49.540;8.576;2022-07-10T03:34:34;6.47;;;3.53;;
16826;SDS011;8530;49.540;8.576;2022-07-10T03:37:03;7.43;;;3.80;;
16826;SDS011;8530;49.540;8.576;2022-07-10T03:39:30;10.33;;;3.57;;
16826;SDS011;8530;49.540;8.576;2022-07-10T03:41:57;6.37;;;3.47;;
16826;SDS011;8530;49.540;8.576;2022-07-10T03:44:23;4.90;;;2.70;;
16826;SDS011;8530;49.540;8.576;2022-07-10T03:46:50;11.37;;;3.83;;
16826;SDS011;8530;49.540;8.576;2022-07-10T03:49:17;4.53;;;2.77;;
16826;SDS011;8530;49.540;8.576;2022-07-10T03:51:43;4.87;;;3.37;;
16826;SDS011;8530;49.540;8.576;2022-07-10T03:54:11;5.83;;;2.80;;
16826;SDS011;8530;49.540;8.576;2022-07-10T03:56:38;5.27;;;2.67;;
16826;SDS011;8530;49.540;8.576;2022-07-10T03:59:22;3.23;;;2.93;;
16826;SDS011;8530;49.540;8.576;2022-07-10T04:01:49;8.90;;;3.47;;
16826;SDS011;8530;49.540;8.576;2022-07-10T04:04:16;4.80;;;3.63;;
16826;SDS011;8530;49.540;8.576;2022-07-10T04:06:42;7.13;;;3.40;;
16826;SDS011;8530;49.540;8.576;2022-07-10T04:09:09;6.07;;;3.03;;
16826;SDS011;8530;49.540;8.576;2022-07-10T04:11:37;4.97;;;2.80;;
16826;SDS011;8530;49.540;8.576;2022-07-10T04:14:03;5.73;;;2.87;;
16826;SDS011;8530;49.540;8.576;2022-07-10T04:16:30;3.63;;;2.60;;
16826;SDS011;8530;49.540;8.576;2022-07-10T04:18:57;6.20;;;2.53;;
16826;SDS011;8530;49.540;8.576;2022-07-10T04:21:23;7.60;;;2.30;;
16826;SDS011;8530;49.540;8.576;2022-07-10T04:23:50;3.67;;;2.67;;
16826;SDS011;8530;49.540;8.576;2022-07-10T04:26:17;6.17;;;2.27;;
16826;SDS011;8530;49.540;8.576;2022-07-10T04:28:45;10.37;;;2.93;;
16826;SDS011;8530;49.540;8.576;2022-07-10T04:31:12;6.83;;;2.90;;
16826;SDS011;8530;49.540;8.576;2022-07-10T04:33:38;9.13;;;3.80;;
16826;SDS011;8530;49.540;8.576;2022-07-10T04:36:05;3.87;;;2.90;;
16826;SDS011;8530;49.540;8.576;2022-07-10T04:38:32;3.23;;;2.93;;
16826;SDS011;8530;49.540;8.576;2022-07-10T04:40:59;4.40;;;2.77;;
16826;SDS011;8530;49.540;8.576;2022-07-10T04:43:26;3.70;;;2.50;;
16826;SDS011;8530;49.540;8.576;2022-07-10T04:45:54;5.67;;;3.17;;
16826;SDS011;8530;49.540;8.576;2022-07-10T04:48:20;5.77;;;2.67;;
16826;SDS011;8530;49.540;8.576;2022-07-10T04:50:47;5.90;;;3.60;;
16826;SDS011;8530;49.540;8.576;2022-07-10T04:53:14;10.83;;;2.93;;
16826;SDS011;8530;49.540;8.576;2022-07-10T04:55:40;4.10;;;2.47;;
16826;SDS011;8530;49.540;8.576;2022-07-10T04:58:07;10.93;;;2.50;;
16826;SDS011;8530;49.540;8.576;2022-07-10T05:00:34;4.30;;;2.60;;
16826;SDS011;8530;49.540;8.576;2022-07-10T05:03:02;4.60;;;2.40;;
16826;SDS011;8530;49.540;8.576;2022-07-10T05:05:28;4.40;;;2.47;;
16826;SDS011;8530;49.540;8.576;2022-07-10T05:07:55;3.83;;;1.90;;
16826;SDS011;8530;49.540;8.576;2022-07-10T05:10:23;5.20;;;2.50;;
16826;SDS011;8530;49.540;8.576;2022-07-10T05:12:50;2.70;;;2.13;;
16826;SDS011;8530;49.540;8.576;2022-07-10T05:15:17;5.50;;;2.30;;
16826;SDS011;8530;49.540;8.576;2022-07-10T05:17:43;3.53;;;2.60;;
16826;SDS011;8530;49.540;8.576;2022-07-10T05:20:11;2.73;;;2.30;;
16826;SDS011;8530;49.540;8.576;2022-07-10T05:22:38;7.27;;;2.33;;
16826;SDS011;8530;49.540;8.576;2022-07-10T05:25:05;5.73;;;2.40;;
16826;SDS011;8530;49.540;8.576;2022-07-10T05:27:32;2.90;;;1.90;;
16826;SDS011;8530;49.540;8.576;2022-07-10T05:29:58;2.77;;;2.40;;
16826;SDS011;8530;49.540;8.576;2022-07-10T05:32:25;2.60;;;2.03;;
16826;SDS011;8530;49.540;8.576;2022-07-10T05:34:52;3.30;;;2.47;;
16826;SDS011;8530;49.540;8.576;2022-07-10T05:37:20;4.37;;;2.90;;
16826;SDS011;8530;49.540;8.576;2022-07-10T05:39:46;3.97;;;2.30;;
16826;SDS011;8530;49.540;8.576;2022-07-10T05:42:13;4.27;;;2.40;;
16826;SDS011;8530;49.540;8.576;2022-07-10T05:44:40;7.13;;;2.40;;
16826;SDS011;8530;49.540;8.576;2022-07-10T05:47:07;3.00;;;2.37;;
16826;SDS011;8530;49.540;8.576;2022-07-10T05:49:33;2.07;;;1.60;;
16826;SDS011;8530;49.540;8.576;2022-07-10T05:52:00;2.20;;;2.00;;
16826;SDS011;8530;49.540;8.576;2022-07-10T05:54:28;8.30;;;2.27;;
16826;SDS011;8530;49.540;8.576;2022-07-10T05:56:55;3.10;;;2.57;;
16826;SDS011;8530;49.540;8.576;2022-07-10T05:59:21;3.23;;;1.80;;
16826;SDS011;8530;49.540;8.576;2022-07-10T06:01:48;4.40;;;2.17;;
16826;SDS011;8530;49.540;8.576;2022-07-10T06:04:15;8.60;;;2.27;;
16826;SDS011;8530;49.540;8.576;2022-07-10T06:06:42;2.90;;;1.97;;
16826;SDS011;8530;49.540;8.576;2022-07-10T06:09:09;4.60;;;2.07;;
16826;SDS011;8530;49.540;8.576;2022-07-10T06:11:37;5.33;;;2.07;;
16826;SDS011;8530;49.540;8.576;2022-07-10T06:14:06;6.10;;;1.80;;
16826;SDS011;8530;49.540;8.576;2022-07-10T06:16:33;2.80;;;1.27;;
16826;SDS011;8530;49.540;8.576;2022-07-10T06:19:00;7.17;;;1.77;;
16826;SDS011;8530;49.540;8.576;2022-07-10T06:21:29;6.70;;;2.00;;
16826;SDS011;8530;49.540;8.576;2022-07-10T06:23:55;4.30;;;1.27;;
16826;SDS011;8530;49.540;8.576;2022-07-10T06:26:22;4.57;;;1.37;;
16826;SDS011;8530;49.540;8.576;2022-07-10T06:28:50;4.87;;;1.37;;
16826;SDS011;8530;49.540;8.576;2022-07-10T06:31:17;3.45;;;1.42;;
16826;SDS011;8530;49.540;8.576;2022-07-10T06:33:44;3.40;;;1.55;;
16826;SDS011;8530;49.540;8.576;2022-07-10T06:36:10;4.05;;;1.40;;
16826;SDS011;8530;49.540;8.576;2022-07-10T06:38:38;4.13;;;1.30;;
16826;SDS011;8530;49.540;8.576;2022-07-10T06:41:06;3.80;;;1.90;;
16826;SDS011;8530;49.540;8.576;2022-07-10T06:43:33;5.63;;;1.85;;
16826;SDS011;8530;49.540;8.576;2022-07-10T06:46:01;4.65;;;1.58;;
16826;SDS011;8530;49.540;8.576;2022-07-10T06:48:28;3.55;;;1.20;;
16826;SDS011;8530;49.540;8.576;2022-07-10T06:50:54;2.25;;;1.15;;
16826;SDS011;8530;49.540;8.576;2022-07-10T06:53:21;4.40;;;0.90;;
16826;SDS011;8530;49.540;8.576;2022-07-10T06:55:49;5.10;;;1.50;;
16826;SDS011;8530;49.540;8.576;2022-07-10T06:58:16;1.30;;;0.70;;
16826;SDS011;8530;49.540;8.576;2022-07-10T07:00:42;2.78;;;1.27;;
16826;SDS011;8530;49.540;8.576;2022-07-10T07:03:11;3.00;;;1.40;;
16826;SDS011;8530;49.540;8.576;2022-07-10T07:05:37;2.42;;;1.10;;
16826;SDS011;8530;49.540;8.576;2022-07-10T07:08:04;3.28;;;0.93;;
16826;SDS011;8530;49.540;8.576;2022-07-10T07:10:31;4.07;;;0.95;;
16826;SDS011;8530;49.540;8.576;2022-07-10T07:12:58;2.55;;;1.10;;
16826;SDS011;8530;49.540;8.576;2022-07-10T07:15:28;1.65;;;0.88;;
16826;SDS011;8530;49.540;8.576;2022-07-10T07:17:54;8.13;;;1.47;;
16826;SDS011;8530;49.540;8.576;2022-07-10T07:20:35;3.17;;;1.07;;
16826;SDS011;8530;49.540;8.576;2022-07-10T07:23:19;5.10;;;1.33;;
16826;SDS011;8530;49.540;8.576;2022-07-10T07:25:46;2.77;;;1.13;;
16826;SDS011;8530;49.540;8.576;2022-07-10T07:28:13;2.27;;;0.90;;
16826;SDS011;8530;49.540;8.576;2022-07-10T07:30:41;4.47;;;1.70;;
16826;SDS011;8530;49.540;8.576;2022-07-10T07:33:08;3.20;;;1.57;;
16826;SDS011;8530;49.540;8.576;2022-07-10T07:35:36;4.70;;;1.20;;
16826;SDS011;8530;49.540;8.576;2022-07-10T07:38:03;2.70;;;1.17;;
16826;SDS011;8530;49.540;8.576;2022-07-10T07:40:31;4.70;;;3.00;;
16826;SDS011;8530;49.540;8.576;2022-07-10T07:42:58;2.27;;;1.10;;
16826;SDS011;8530;49.540;8.576;2022-07-10T07:45:26;2.80;;;0.97;;
16826;SDS011;8530;49.540;8.576;2022-07-10T07:47:53;6.03;;;2.03;;
16826;SDS011;8530;49.540;8.576;2022-07-10T07:50:22;2.70;;;1.13;;
16826;SDS011;8530;49.540;8.576;2022-07-10T07:52:55;2.17;;;1.27;;
16826;SDS011;8530;49.540;8.576;2022-07-10T07:55:26;4.33;;;1.10;;
16826;SDS011;8530;49.540;8.576;2022-07-10T07:57:55;4.40;;;1.07;;
16826;SDS011;8530;49.540;8.576;2022-07-10T08:00:23;3.08;;;1.25;;
16826;SDS011;8530;49.540;8.576;2022-07-10T08:02:56;1.90;;;0.80;;
16826;SDS011;8530;49.540;8.576;2022-07-10T08:05:24;2.25;;;0.88;;
16826;SDS011;8530;49.540;8.576;2022-07-10T08:07:51;1.77;;;0.85;;
16826;SDS011;8530;49.540;8.576;2022-07-10T08:10:21;2.90;;;1.03;;
16826;SDS011;8530;49.540;8.576;2022-07-10T08:12:49;2.90;;;1.10;;
16826;SDS011;8530;49.540;8.576;2022-07-10T08:15:17;2.70;;;1.20;;
16826;SDS011;8530;49.540;8.576;2022-07-10T08:17:47;3.77;;;0.90;;
16826;SDS011;8530;49.540;8.576;2022-07-10T08:20:14;2.30;;;1.10;;
16826;SDS011;8530;49.540;8.576;2022-07-10T08:22:41;4.43;;;1.70;;
16826;SDS011;8530;49.540;8.576;2022-07-10T08:25:08;4.30;;;1.60;;
16826;SDS011;8530;49.540;8.576;2022-07-10T08:27:37;5.70;;;1.20;;
16826;SDS011;8530;49.540;8.576;2022-07-10T08:30:04;2.30;;;1.30;;
16826;SDS011;8530;49.540;8.576;2022-07-10T08:32:33;4.43;;;1.60;;
16826;SDS011;8530;49.540;8.576;2022-07-10T08:35:01;3.30;;;1.90;;
16826;SDS011;8530;49.540;8.576;2022-07-10T08:37:27;2.13;;;0.90;;
16826;SDS011;8530;49.540;8.576;2022-07-10T08:39:54;3.47;;;1.80;;
16826;SDS011;8530;49.540;8.576;2022-07-10T08:42:21;2.43;;;1.40;;
16826;SDS011;8530;49.540;8.576;2022-07-10T08:44:52;2.40;;;1.17;;
16826;SDS011;8530;49.540;8.576;2022-07-10T08:47:21;6.40;;;1.23;;
16826;SDS011;8530;49.540;8.576;2022-07-10T08:49:50;5.20;;;1.70;;
16826;SDS011;8530;49.540;8.576;2022-07-10T08:52:22;4.07;;;1.50;;
16826;SDS011;8530;49.540;8.576;2022-07-10T08:54:52;2.13;;;1.53;;
16826;SDS011;8530;49.540;8.576;2022-07-10T08:57:20;4.00;;;1.83;;
16826;SDS011;8530;49.540;8.576;2022-07-10T08:59:49;3.93;;;1.23;;
16826;SDS011;8530;49.540;8.576;2022-07-10T09:02:18;2.63;;;1.20;;
16826;SDS011;8530;49.540;8.576;2022-07-10T09:04:45;3.40;;;1.30;;
16826;SDS011;8530;49.540;8.576;2022-07-10T09:07:12;3.00;;;1.20;;
16826;SDS011;8530;49.540;8.576;2022-07-10T09:09:51;5.57;;;1.90;;
16826;SDS011;8530;49.540;8.576;2022-07-10T09:12:20;2.00;;;1.40;;
16826;SDS011;8530;49.540;8.576;2022-07-10T09:14:47;3.33;;;1.30;;
16826;SDS011;8530;49.540;8.576;2022-07-10T09:17:15;9.43;;;1.53;;
16826;SDS011;8530;49.540;8.576;2022-07-10T09:19:42;2.97;;;1.37;;
16826;SDS011;8530;49.540;8.576;2022-07-10T09:22:10;7.70;;;1.50;;
16826;SDS011;8530;49.540;8.576;2022-07-10T09:24:38;7.87;;;1.47;;
16826;SDS011;8530;49.540;8.576;2022-07-10T09:27:06;4.33;;;1.50;;
16826;SDS011;8530;49.540;8.576;2022-07-10T09:29:44;4.70;;;1.10;;
16826;SDS011;8530;49.540;8.576;2022-07-10T09:32:11;2.50;;;1.10;;
16826;SDS011;8530;49.540;8.576;2022-07-10T09:34:40;4.60;;;1.60;;
16826;SDS011;8530;49.540;8.576;2022-07-10T09:37:21;3.20;;;1.40;;
16826;SDS011;8530;49.540;8.576;2022-07-10T09:39:53;2.30;;;1.30;;
16826;SDS011;8530;49.540;8.576;2022-07-10T09:42:25;3.50;;;1.43;;
16826;SDS011;8530;49.540;8.576;2022-07-10T09:44:52;4.00;;;1.50;;
16826;SDS011;8530;49.540;8.576;2022-07-10T09:47:38;2.93;;;1.20;;
16826;SDS011;8530;49.540;8.576;2022-07-10T09:50:06;3.10;;;1.50;;
16826;SDS011;8530;49.540;8.576;2022-07-10T09:52:46;9.10;;;1.57;;
16826;SDS011;8530;49.540;8.576;2022-07-10T09:55:13;1.70;;;1.20;;
16826;SDS011;8530;49.540;8.576;2022-07-10T09:57:41;5.30;;;1.40;;
16826;SDS011;8530;49.540;8.576;2022-07-10T10:00:12;5.60;;;1.87;;
16826;SDS011;8530;49.540;8.576;2022-07-10T10:02:39;5.23;;;1.50;;
16826;SDS011;8530;49.540;8.576;2022-07-10T10:05:07;4.47;;;1.17;;
16826;SDS011;8530;49.540;8.576;2022-07-10T10:07:35;4.37;;;1.53;;
16826;SDS011;8530;49.540;8.576;2022-07-10T10:10:04;6.20;;;1.27;;
16826;SDS011;8530;49.540;8.576;2022-07-10T10:12:35;3.23;;;1.23;;
16826;SDS011;8530;49.540;8.576;2022-07-10T10:15:08;4.10;;;1.30;;
16826;SDS011;8530;49.540;8.576;2022-07-10T10:17:37;2.73;;;1.70;;
16826;SDS011;8530;49.540;8.576;2022-07-10T10:20:08;4.67;;;1.50;;
16826;SDS011;8530;49.540;8.576;2022-07-10T10:23:09;2.03;;;1.03;;
16826;SDS011;8530;49.540;8.576;2022-07-10T10:25:37;5.83;;;1.27;;
16826;SDS011;8530;49.540;8.576;2022-07-10T10:28:04;4.77;;;1.77;;
16826;SDS011;8530;49.540;8.576;2022-07-10T10:30:35;5.30;;;1.60;;
16826;SDS011;8530;49.540;8.576;2022-07-10T10:33:03;3.00;;;1.40;;
16826;SDS011;8530;49.540;8.576;2022-07-10T10:38:16;2.70;;;1.10;;
16826;SDS011;8530;49.540;8.576;2022-07-10T10:40:43;3.37;;;1.10;;
16826;SDS011;8530;49.540;8.576;2022-07-10T10:43:16;3.53;;;1.40;;
16826;SDS011;8530;49.540;8.576;2022-07-10T10:45:44;3.73;;;1.50;;
16826;SDS011;8530;49.540;8.576;2022-07-10T10:48:12;2.03;;;1.40;;
16826;SDS011;8530;49.540;8.576;2022-07-10T10:50:40;4.60;;;1.73;;
16826;SDS011;8530;49.540;8.576;2022-07-10T10:53:15;4.70;;;1.73;;
16826;SDS011;8530;49.540;8.576;2022-07-10T10:58:57;3.33;;;1.10;;
16826;SDS011;8530;49.540;8.576;2022-07-10T11:01:24;7.33;;;1.70;;
16826;SDS011;8530;49.540;8.576;2022-07-10T11:06:39;3.57;;;1.00;;
16826;SDS011;8530;49.540;8.576;2022-07-10T11:14:37;2.27;;;1.37;;
16826;SDS011;8530;49.540;8.576;2022-07-10T11:17:07;3.87;;;1.57;;
16826;SDS011;8530;49.540;8.576;2022-07-10T11:19:34;2.33;;;1.40;;
16826;SDS011;8530;49.540;8.576;2022-07-10T11:22:09;2.30;;;1.10;;
16826;SDS011;8530;49.540;8.576;2022-07-10T11:24:55;2.47;;;1.10;;
16826;SDS011;8530;49.540;8.576;2022-07-10T11:27:34;3.93;;;1.10;;
16826;SDS011;8530;49.540;8.576;2022-07-10T11:30:14;1.77;;;1.00;;
16826;SDS011;8530;49.540;8.576;2022-07-10T11:32:41;2.80;;;1.20;;
16826;SDS011;8530;49.540;8.576;2022-07-10T11:35:10;3.33;;;1.27;;
16826;SDS011;8530;49.540;8.576;2022-07-10T11:37:39;3.83;;;1.43;;
16826;SDS011;8530;49.540;8.576;2022-07-10T11:40:16;2.63;;;1.37;;
16826;SDS011;8530;49.540;8.576;2022-07-10T11:42:48;6.70;;;1.97;;
16826;SDS011;8530;49.540;8.576;2022-07-10T11:45:25;5.87;;;2.00;;
16826;SDS011;8530;49.540;8.576;2022-07-10T11:47:53;2.27;;;1.17;;
16826;SDS011;8530;49.540;8.576;2022-07-10T11:50:20;4.47;;;1.40;;
16826;SDS011;8530;49.540;8.576;2022-07-10T11:52:47;5.00;;;1.70;;
16826;SDS011;8530;49.540;8.576;2022-07-10T11:55:16;3.23;;;1.70;;
16826;SDS011;8530;49.540;8.576;2022-07-10T11:57:44;3.53;;;1.27;;
16826;SDS011;8530;49.540;8.576;2022-07-10T12:00:20;3.93;;;1.17;;
16826;SDS011;8530;49.540;8.576;2022-07-10T12:02:48;4.03;;;1.97;;
16826;SDS011;8530;49.540;8.576;2022-07-10T12:05:29;9.30;;;1.70;;
16826;SDS011;8530;49.540;8.576;2022-07-10T12:07:56;7.50;;;1.40;;
16826;SDS011;8530;49.540;8.576;2022-07-10T12:10:26;4.50;;;1.50;;
16826;SDS011;8530;49.540;8.576;2022-07-10T12:12:53;3.20;;;1.57;;
16826;SDS011;8530;49.540;8.576;2022-07-10T12:15:33;5.00;;;1.57;;
16826;SDS011;8530;49.540;8.576;2022-07-10T12:18:02;3.63;;;1.47;;
16826;SDS011;8530;49.540;8.576;2022-07-10T12:20:29;4.77;;;1.50;;
16826;SDS011;8530;49.540;8.576;2022-07-10T12:22:57;6.30;;;1.83;;
16826;SDS011;8530;49.540;8.576;2022-07-10T12:25:24;3.80;;;1.57;;
16826;SDS011;8530;49.540;8.576;2022-07-10T12:27:56;4.30;;;1.37;;
16826;SDS011;8530;49.540;8.576;2022-07-10T12:30:23;2.90;;;1.30;;
16826;SDS011;8530;49.540;8.576;2022-07-10T12:33:05;5.37;;;1.73;;
16826;SDS011;8530;49.540;8.576;2022-07-10T12:35:44;3.23;;;1.53;;
16826;SDS011;8530;49.540;8.576;2022-07-10T12:38:14;5.30;;;1.20;;
16826;SDS011;8530;49.540;8.576;2022-07-10T12:40:42;1.40;;;1.10;;
16826;SDS011;8530;49.540;8.576;2022-07-10T12:43:09;3.87;;;1.50;;
16826;SDS011;8530;49.540;8.576;2022-07-10T12:45:37;4.00;;;1.20;;
16826;SDS011;8530;49.540;8.576;2022-07-10T12:48:04;6.10;;;1.37;;
16826;SDS011;8530;49.540;8.576;2022-07-10T12:50:32;4.83;;;1.40;;
16826;SDS011;8530;49.540;8.576;2022-07-10T12:53:08;3.80;;;1.47;;
16826;SDS011;8530;49.540;8.576;2022-07-10T12:55:36;4.10;;;1.70;;
16826;SDS011;8530;49.540;8.576;2022-07-10T12:58:08;4.77;;;1.53;;
16826;SDS011;8530;49.540;8.576;2022-07-10T13:00:42;5.73;;;2.40;;
16826;SDS011;8530;49.540;8.576;2022-07-10T13:03:16;4.23;;;1.60;;
16826;SDS011;8530;49.540;8.576;2022-07-10T13:05:44;6.97;;;1.97;;
16826;SDS011;8530;49.540;8.576;2022-07-10T13:08:11;6.30;;;1.90;;
16826;SDS011;8530;49.540;8.576;2022-07-10T13:10:41;6.23;;;1.50;;
16826;SDS011;8530;49.540;8.576;2022-07-10T13:13:09;2.00;;;1.13;;
16826;SDS011;8530;49.540;8.576;2022-07-10T13:15:36;5.10;;;1.60;;
16826;SDS011;8530;49.540;8.576;2022-07-10T13:18:06;2.20;;;1.27;;
16826;SDS011;8530;49.540;8.576;2022-07-10T13:20:33;5.37;;;1.67;;
16826;SDS011;8530;49.540;8.576;2022-07-10T13:23:00;3.27;;;1.33;;
16826;SDS011;8530;49.540;8.576;2022-07-10T13:25:26;6.53;;;1.40;;
16826;SDS011;8530;49.540;8.576;2022-07-10T13:27:54;3.47;;;1.50;;
16826;SDS011;8530;49.540;8.576;2022-07-10T13:30:22;4.07;;;1.30;;
16826;SDS011;8530;49.540;8.576;2022-07-10T13:32:49;3.60;;;1.43;;
16826;SDS011;8530;49.540;8.576;2022-07-10T13:35:15;5.20;;;1.40;;
16826;SDS011;8530;49.540;8.576;2022-07-10T13:37:42;2.50;;;1.10;;
16826;SDS011;8530;49.540;8.576;2022-07-10T13:40:09;6.63;;;1.70;;
16826;SDS011;8530;49.540;8.576;2022-07-10T13:42:36;6.93;;;1.83;;
16826;SDS011;8530;49.540;8.576;2022-07-10T13:45:04;3.77;;;1.20;;
16826;SDS011;8530;49.540;8.576;2022-07-10T13:47:34;3.57;;;1.30;;
16826;SDS011;8530;49.540;8.576;2022-07-10T13:50:01;4.23;;;1.60;;
16826;SDS011;8530;49.540;8.576;2022-07-10T13:52:28;2.63;;;1.47;;
16826;SDS011;8530;49.540;8.576;2022-07-10T13:54:54;4.83;;;1.63;;
16826;SDS011;8530;49.540;8.576;2022-07-10T13:57:21;4.47;;;1.60;;
16826;SDS011;8530;49.540;8.576;2022-07-10T13:59:49;2.33;;;1.47;;
16826;SDS011;8530;49.540;8.576;2022-07-10T14:02:16;3.73;;;1.63;;
16826;SDS011;8530;49.540;8.576;2022-07-10T14:04:44;5.20;;;2.53;;
16826;SDS011;8530;49.540;8.576;2022-07-10T14:07:11;4.57;;;1.40;;
16826;SDS011;8530;49.540;8.576;2022-07-10T14:09:37;2.50;;;1.10;;
16826;SDS011;8530;49.540;8.576;2022-07-10T14:12:04;5.33;;;1.23;;
16826;SDS011;8530;49.540;8.576;2022-07-10T14:14:31;2.03;;;1.10;;
16826;SDS011;8530;49.540;8.576;2022-07-10T14:16:58;2.70;;;1.20;;
16826;SDS011;8530;49.540;8.576;2022-07-10T14:19:25;2.90;;;1.50;;
16826;SDS011;8530;49.540;8.576;2022-07-10T14:21:53;3.63;;;1.53;;
16826;SDS011;8530;49.540;8.576;2022-07-10T14:24:20;2.60;;;1.03;;
16826;SDS011;8530;49.540;8.576;2022-07-10T14:26:47;5.60;;;1.70;;
16826;SDS011;8530;49.540;8.576;2022-07-10T14:29:13;1.57;;;1.07;;
16826;SDS011;8530;49.540;8.576;2022-07-10T14:31:40;5.50;;;2.43;;
16826;SDS011;8530;49.540;8.576;2022-07-10T14:34:08;2.50;;;1.30;;
16826;SDS011;8530;49.540;8.576;2022-07-10T14:36:35;5.23;;;1.47;;
16826;SDS011;8530;49.540;8.576;2022-07-10T14:39:03;6.70;;;1.57;;
16826;SDS011;8530;49.540;8.576;2022-07-10T14:41:32;2.23;;;1.40;;
16826;SDS011;8530;49.540;8.576;2022-07-10T14:43:59;10.97;;;1.23;;
16826;SDS011;8530;49.540;8.576;2022-07-10T14:46:25;3.50;;;1.40;;
16826;SDS011;8530;49.540;8.576;2022-07-10T14:48:52;6.37;;;1.33;;
16826;SDS011;8530;49.540;8.576;2022-07-10T14:51:19;5.70;;;1.80;;
16826;SDS011;8530;49.540;8.576;2022-07-10T14:53:45;2.13;;;1.20;;
16826;SDS011;8530;49.540;8.576;2022-07-10T14:56:14;1.60;;;1.17;;
16826;SDS011;8530;49.540;8.576;2022-07-10T14:58:42;4.57;;;1.37;;
16826;SDS011;8530;49.540;8.576;2022-07-10T15:01:09;1.83;;;1.13;;
16826;SDS011;8530;49.540;8.576;2022-07-10T15:03:38;3.97;;;1.50;;
16826;SDS011;8530;49.540;8.576;2022-07-10T15:06:05;2.50;;;1.10;;
16826;SDS011;8530;49.540;8.576;2022-07-10T15:08:32;3.57;;;1.30;;
16826;SDS011;8530;49.540;8.576;2022-07-10T15:10:59;6.00;;;1.43;;
16826;SDS011;8530;49.540;8.576;2022-07-10T15:13:28;2.80;;;1.17;;
16826;SDS011;8530;49.540;8.576;2022-07-10T15:16:04;3.30;;;1.20;;
16826;SDS011;8530;49.540;8.576;2022-07-10T15:18:44;2.10;;;1.20;;
16826;SDS011;8530;49.540;8.576;2022-07-10T15:21:11;4.80;;;1.60;;